createdAt,value
2018-09-01T00:00:55.488Z,0.00
2018-09-01T00:01:55.480Z,0.00
2018-09-01T00:02:55.495Z,0.00
2018-09-01T00:03:55.451Z,0.00
2018-09-01T00:04:55.440Z,0.00
2018-09-01T00:05:55.431Z,0.00
2018-09-01T00:06:55.419Z,0.00
2018-09-01T00:07:55.409Z,0.00
2018-09-01T00:08:55.414Z,0.00
2018-09-01T00:09:55.387Z,0.00
2018-09-01T00:10:55.377Z,0.00
2018-09-01T00:11:55.363Z,0.00
2018-09-01T00:12:55.366Z,0.00
2018-09-01T00:13:55.343Z,0.00
2018-09-01T00:14:55.338Z,0.00
2018-09-01T00:15:55.320Z,0.00
2018-09-01T00:16:55.312Z,0.00
2018-09-01T00:17:55.313Z,0.00
2018-09-01T00:18:55.288Z,0.00
2018-09-01T00:19:55.278Z,0.00
2018-09-01T00:20:55.282Z,0.00
2018-09-01T00:21:55.256Z,0.00
2018-09-01T00:22:55.246Z,0.00
2018-09-01T00:23:55.234Z,0.00
2018-09-01T00:24:55.235Z,0.00
2018-09-01T00:25:55.213Z,0.00
2018-09-01T00:26:55.199Z,0.00
2018-09-01T00:27:55.194Z,0.00
2018-09-01T00:28:55.179Z,0.00
2018-09-01T00:29:55.213Z,0.00
2018-09-01T00:30:55.160Z,0.00
2018-09-01T00:31:55.147Z,0.00
2018-09-01T00:32:55.138Z,0.00
2018-09-01T00:33:55.127Z,0.00
2018-09-01T00:34:55.116Z,0.00
2018-09-01T00:35:55.127Z,0.00
2018-09-01T00:36:55.092Z,0.00
2018-09-01T00:37:55.079Z,0.00
2018-09-01T00:38:55.070Z,0.00
2018-09-01T00:39:55.056Z,0.00
2018-09-01T00:40:55.046Z,0.00
2018-09-01T00:41:55.055Z,0.00
2018-09-01T00:42:55.024Z,0.00
2018-09-01T00:43:55.031Z,0.00
2018-09-01T00:44:55.013Z,0.00
2018-09-01T00:45:55.007Z,0.00
2018-09-01T00:46:55.023Z,0.00
2018-09-01T00:47:54.968Z,0.00
2018-09-01T00:48:54.960Z,0.00
2018-09-01T00:49:54.949Z,0.00
2018-09-01T00:50:54.939Z,0.00
2018-09-01T00:51:54.927Z,0.00
2018-09-01T00:52:54.931Z,0.00
2018-09-01T00:53:54.903Z,0.00
2018-09-01T00:54:54.896Z,0.00
2018-09-01T00:55:54.885Z,0.00
2018-09-01T00:56:54.887Z,0.00
2018-09-01T00:57:54.877Z,0.00
2018-09-01T00:58:54.849Z,0.00
2018-09-01T00:59:54.841Z,0.00
2018-09-01T01:00:54.830Z,0.00
2018-09-01T01:01:54.816Z,0.00
2018-09-01T01:02:54.826Z,0.00
2018-09-01T01:03:54.796Z,0.00
2018-09-01T01:04:54.784Z,0.00
2018-09-01T01:05:54.772Z,0.00
2018-09-01T01:06:54.764Z,0.00
2018-09-01T01:07:54.754Z,0.00
2018-09-01T01:08:54.759Z,0.00
2018-09-01T01:09:54.726Z,0.00
2018-09-01T01:10:54.715Z,0.00
2018-09-01T01:11:54.708Z,0.00
2018-09-01T01:12:54.692Z,0.00
2018-09-01T01:13:54.706Z,0.00
2018-09-01T01:14:54.674Z,0.00
2018-09-01T01:15:54.666Z,0.00
2018-09-01T01:16:54.652Z,0.00
2018-09-01T01:17:54.639Z,0.00
2018-09-01T01:18:54.626Z,0.00
2018-09-01T01:19:54.637Z,0.00
2018-09-01T01:20:54.605Z,0.00
2018-09-01T01:21:54.592Z,0.00
2018-09-01T01:22:54.582Z,0.00
2018-09-01T01:23:54.577Z,0.00
2018-09-01T01:24:54.559Z,0.00
2018-09-01T01:25:54.566Z,0.00
2018-09-01T01:26:54.539Z,0.00
2018-09-01T01:27:54.530Z,0.00
2018-09-01T01:28:54.517Z,0.00
2018-09-01T01:29:54.519Z,0.00
2018-09-01T01:30:54.496Z,0.00
2018-09-01T01:31:54.504Z,0.00
2018-09-01T01:32:54.470Z,0.00
2018-09-01T01:33:54.461Z,0.00
2018-09-01T01:34:54.447Z,0.00
2018-09-01T01:35:54.440Z,0.00
2018-09-01T01:36:54.430Z,0.00
2018-09-01T01:37:54.431Z,0.00
2018-09-01T01:38:54.403Z,0.00
2018-09-01T01:39:54.394Z,0.00
2018-09-01T01:40:54.384Z,0.00
2018-09-01T01:41:54.411Z,0.00
2018-09-01T01:42:54.378Z,0.00
2018-09-01T01:43:54.352Z,0.00
2018-09-01T01:44:54.338Z,0.00
2018-09-01T01:45:54.325Z,0.00
2018-09-01T01:46:54.315Z,0.00
2018-09-01T01:47:54.328Z,0.00
2018-09-01T01:48:54.293Z,0.00
2018-09-01T01:49:54.284Z,0.00
2018-09-01T01:50:54.274Z,0.00
2018-09-01T01:51:54.265Z,0.00
2018-09-01T01:52:54.249Z,0.00
2018-09-01T01:53:54.261Z,0.00
2018-09-01T01:54:54.229Z,0.00
2018-09-01T01:55:54.217Z,0.00
2018-09-01T01:56:54.207Z,0.00
2018-09-01T01:57:54.199Z,0.00
2018-09-01T01:58:54.185Z,0.00
2018-09-01T01:59:54.187Z,0.00
2018-09-01T02:00:54.166Z,0.00
2018-09-01T02:01:54.157Z,0.00
2018-09-01T02:02:54.161Z,0.00
2018-09-01T02:03:54.141Z,0.00
2018-09-01T02:04:54.121Z,0.00
2018-09-01T02:05:54.111Z,0.00
2018-09-01T02:06:54.100Z,0.00
2018-09-01T02:07:54.103Z,0.00
2018-09-01T02:08:54.075Z,0.00
2018-09-01T02:09:54.081Z,0.00
2018-09-01T02:10:54.064Z,0.00
2018-09-01T02:11:54.042Z,0.00
2018-09-01T02:12:54.045Z,0.00
2018-09-01T02:13:54.023Z,0.00
2018-09-01T02:14:54.024Z,0.00
2018-09-01T02:15:54.001Z,0.00
2018-09-01T02:16:53.990Z,0.00
2018-09-01T02:17:53.978Z,0.00
2018-09-01T02:18:53.970Z,0.00
2018-09-01T02:19:53.974Z,0.00
2018-09-01T02:20:53.945Z,0.00
2018-09-01T02:21:53.936Z,0.00
2018-09-01T02:22:53.926Z,0.00
2018-09-01T02:23:53.914Z,0.00
2018-09-01T02:24:53.919Z,0.00
2018-09-01T02:25:53.911Z,0.00
2018-09-01T02:26:53.880Z,0.00
2018-09-01T02:27:53.871Z,0.00
2018-09-01T02:28:53.866Z,0.00
2018-09-01T02:29:53.887Z,0.00
2018-09-01T02:30:53.843Z,0.00
2018-09-01T02:31:53.828Z,0.00
2018-09-01T02:32:53.817Z,0.00
2018-09-01T02:33:53.805Z,0.00
2018-09-01T02:34:53.796Z,0.00
2018-09-01T02:35:53.808Z,0.00
2018-09-01T02:36:53.776Z,0.00
2018-09-01T02:37:53.763Z,0.00
2018-09-01T02:38:53.749Z,0.00
2018-09-01T02:39:53.741Z,0.00
2018-09-01T02:40:53.731Z,0.00
2018-09-01T02:41:53.735Z,0.00
2018-09-01T02:42:53.707Z,0.00
2018-09-01T02:43:53.694Z,0.00
2018-09-01T02:44:53.687Z,0.00
2018-09-01T02:45:53.673Z,0.00
2018-09-01T02:46:53.710Z,0.00
2018-09-01T02:47:53.654Z,0.00
2018-09-01T02:48:53.640Z,0.00
2018-09-01T02:49:53.632Z,0.00
2018-09-01T02:50:53.623Z,0.00
2018-09-01T02:51:53.610Z,0.00
2018-09-01T02:52:53.616Z,0.00
2018-09-01T02:53:53.587Z,0.00
2018-09-01T02:54:53.576Z,0.00
2018-09-01T02:55:53.566Z,0.00
2018-09-01T02:56:53.556Z,0.00
2018-09-01T02:57:53.544Z,0.00
2018-09-01T02:58:53.548Z,0.00
2018-09-01T02:59:53.520Z,0.00
2018-09-01T03:00:53.512Z,0.00
2018-09-01T03:01:53.501Z,0.00
2018-09-01T03:02:53.490Z,0.00
2018-09-01T03:03:53.494Z,0.00
2018-09-01T03:04:53.469Z,0.00
2018-09-01T03:05:53.458Z,0.00
2018-09-01T03:06:53.447Z,0.00
2018-09-01T03:07:53.457Z,0.00
2018-09-01T03:08:53.426Z,0.00
2018-09-01T03:09:53.448Z,0.00
2018-09-01T03:10:53.403Z,0.00
2018-09-01T03:11:53.392Z,0.00
2018-09-01T03:12:53.379Z,0.00
2018-09-01T03:13:53.370Z,0.00
2018-09-01T03:14:53.360Z,0.00
2018-09-01T03:15:53.371Z,0.00
2018-09-01T03:16:53.336Z,0.00
2018-09-01T03:17:53.324Z,0.00
2018-09-01T03:18:53.317Z,0.00
2018-09-01T03:19:53.309Z,0.00
2018-09-01T03:20:53.295Z,0.00
2018-09-01T03:21:53.295Z,0.00
2018-09-01T03:22:53.273Z,0.00
2018-09-01T03:23:53.260Z,0.00
2018-09-01T03:24:53.280Z,0.00
2018-09-01T03:25:53.239Z,0.00
2018-09-01T03:26:53.227Z,0.00
2018-09-01T03:27:53.216Z,0.00
2018-09-01T03:28:53.207Z,0.00
2018-09-01T03:29:53.194Z,0.00
2018-09-01T03:30:53.210Z,0.00
2018-09-01T03:31:53.175Z,0.00
2018-09-01T03:32:53.166Z,0.00
2018-09-01T03:33:53.153Z,0.00
2018-09-01T03:34:53.142Z,0.00
2018-09-01T03:35:53.130Z,0.00
2018-09-01T03:36:53.135Z,0.00
2018-09-01T03:37:53.108Z,0.00
2018-09-01T03:38:53.101Z,0.00
2018-09-01T03:39:53.089Z,0.00
2018-09-01T03:40:53.075Z,0.00
2018-09-01T03:41:53.082Z,0.00
2018-09-01T03:42:53.056Z,0.00
2018-09-01T03:43:53.045Z,0.00
2018-09-01T03:44:53.033Z,0.00
2018-09-01T03:45:53.024Z,0.00
2018-09-01T03:46:53.031Z,0.00
2018-09-01T03:47:53.002Z,0.00
2018-09-01T03:48:52.991Z,0.00
2018-09-01T03:49:52.980Z,0.00
2018-09-01T03:50:52.968Z,0.00
2018-09-01T03:51:52.959Z,0.00
2018-09-01T03:52:52.970Z,0.00
2018-09-01T03:53:52.936Z,0.00
2018-09-01T03:54:52.931Z,0.00
2018-09-01T03:55:52.918Z,0.00
2018-09-01T03:56:52.904Z,0.00
2018-09-01T03:57:52.896Z,0.00
2018-09-01T03:58:52.896Z,0.00
2018-09-01T03:59:52.884Z,0.00
2018-09-01T04:00:52.861Z,0.00
2018-09-01T04:01:52.851Z,0.00
2018-09-01T04:02:52.839Z,0.00
2018-09-01T04:03:52.844Z,0.00
2018-09-01T04:04:52.819Z,4.00
2018-09-01T04:05:52.807Z,4.00
2018-09-01T04:06:52.795Z,4.00
2018-09-01T04:07:52.782Z,0.00
2018-09-01T04:08:52.819Z,4.00
2018-09-01T04:09:52.761Z,8.00
2018-09-01T04:10:52.750Z,4.00
2018-09-01T04:11:52.745Z,8.00
2018-09-01T04:12:52.729Z,8.00
2018-09-01T04:13:52.716Z,12.00
2018-09-01T04:14:52.720Z,12.00
2018-09-01T04:15:52.697Z,16.00
2018-09-01T04:16:52.685Z,20.00
2018-09-01T04:17:52.676Z,20.00
2018-09-01T04:18:52.665Z,24.00
2018-09-01T04:19:52.680Z,28.00
2018-09-01T04:20:52.644Z,36.00
2018-09-01T04:21:52.632Z,40.00
2018-09-01T04:22:52.619Z,48.00
2018-09-01T04:23:52.612Z,56.00
2018-09-01T04:24:52.600Z,64.00
2018-09-01T04:25:52.609Z,72.00
2018-09-01T04:26:52.578Z,84.00
2018-09-01T04:27:52.564Z,96.00
2018-09-01T04:28:52.559Z,104.00
2018-09-01T04:29:52.582Z,120.00
2018-09-01T04:30:52.531Z,132.00
2018-09-01T04:31:52.564Z,152.00
2018-09-01T04:32:52.510Z,168.00
2018-09-01T04:33:52.503Z,184.00
2018-09-01T04:34:52.494Z,208.00
2018-09-01T04:35:52.477Z,228.00
2018-09-01T04:36:52.468Z,248.00
2018-09-01T04:37:52.472Z,272.00
2018-09-01T04:38:52.447Z,296.00
2018-09-01T04:39:52.437Z,320.00
2018-09-01T04:40:52.429Z,344.00
2018-09-01T04:41:52.414Z,376.00
2018-09-01T04:42:52.439Z,404.00
2018-09-01T04:43:52.389Z,436.00
2018-09-01T04:44:52.379Z,468.00
2018-09-01T04:45:52.371Z,500.00
2018-09-01T04:46:52.389Z,532.00
2018-09-01T04:47:52.349Z,572.00
2018-09-01T04:48:52.377Z,608.00
2018-09-01T04:49:52.326Z,644.00
2018-09-01T04:50:52.314Z,684.00
2018-09-01T04:51:52.313Z,724.00
2018-09-01T04:52:52.292Z,764.00
2018-09-01T04:53:52.279Z,804.00
2018-09-01T04:54:52.285Z,852.00
2018-09-01T04:55:52.258Z,896.00
2018-09-01T04:56:52.247Z,940.00
2018-09-01T04:57:52.238Z,988.00
2018-09-01T04:58:52.240Z,1032.00
2018-09-01T04:59:52.214Z,1080.00
2018-09-01T05:00:52.247Z,1132.00
2018-09-01T05:01:52.195Z,1176.00
2018-09-01T05:02:52.189Z,1224.00
2018-09-01T05:03:52.192Z,1276.00
2018-09-01T05:04:52.181Z,1324.00
2018-09-01T05:05:52.152Z,1376.00
2018-09-01T05:06:52.138Z,1428.00
2018-09-01T05:07:52.128Z,1480.00
2018-09-01T05:08:52.120Z,1532.00
2018-09-01T05:09:52.107Z,1584.00
2018-09-01T05:10:52.110Z,1640.00
2018-09-01T05:11:52.082Z,1692.00
2018-09-01T05:12:52.075Z,1744.00
2018-09-01T05:13:52.073Z,1804.00
2018-09-01T05:14:52.051Z,1860.00
2018-09-01T05:15:52.055Z,1924.00
2018-09-01T05:16:52.028Z,1976.00
2018-09-01T05:17:52.019Z,2036.00
2018-09-01T05:18:52.019Z,2092.00
2018-09-01T05:19:52.009Z,2148.00
2018-09-01T05:20:52.001Z,2204.00
2018-09-01T05:21:51.976Z,2264.00
2018-09-01T05:22:51.964Z,2324.00
2018-09-01T05:23:52.011Z,2388.00
2018-09-01T05:24:51.947Z,2444.00
2018-09-01T05:25:51.954Z,2508.00
2018-09-01T05:26:51.926Z,2568.00
2018-09-01T05:27:51.907Z,2632.00
2018-09-01T05:28:51.898Z,2688.00
2018-09-01T05:29:51.885Z,2748.00
2018-09-01T05:30:51.875Z,2808.00
2018-09-01T05:31:51.887Z,2860.00
2018-09-01T05:32:51.853Z,2904.00
2018-09-01T05:33:51.843Z,2940.00
2018-09-01T05:34:51.833Z,2984.00
2018-09-01T05:35:51.823Z,3028.00
2018-09-01T05:36:51.814Z,3072.00
2018-09-01T05:37:51.811Z,3116.00
2018-09-01T05:38:51.792Z,3164.00
2018-09-01T05:39:51.776Z,3212.00
2018-09-01T05:40:51.768Z,3260.00
2018-09-01T05:41:51.770Z,3312.00
2018-09-01T05:42:51.751Z,3368.00
2018-09-01T05:43:51.734Z,3416.00
2018-09-01T05:44:51.725Z,3472.00
2018-09-01T05:45:51.713Z,3528.00
2018-09-01T05:46:51.726Z,3580.00
2018-09-01T05:47:51.689Z,3632.00
2018-09-01T05:48:51.678Z,3684.00
2018-09-01T05:49:51.668Z,3740.00
2018-09-01T05:50:51.742Z,3800.00
2018-09-01T05:51:51.648Z,3848.00
2018-09-01T05:52:51.649Z,3900.00
2018-09-01T05:53:51.625Z,3948.00
2018-09-01T05:54:51.614Z,4000.00
2018-09-01T05:55:51.601Z,4052.00
2018-09-01T05:56:51.591Z,4104.00
2018-09-01T05:57:51.599Z,4148.00
2018-09-01T05:58:51.568Z,4200.00
2018-09-01T05:59:51.560Z,4248.00
2018-09-01T06:00:51.552Z,4292.00
2018-09-01T06:01:51.539Z,4340.00
2018-09-01T06:02:51.541Z,4388.00
2018-09-01T06:03:51.513Z,4440.00
2018-09-01T06:04:51.502Z,4492.00
2018-09-01T06:05:51.528Z,4548.00
2018-09-01T06:06:51.482Z,4604.00
2018-09-01T06:07:51.496Z,4656.00
2018-09-01T06:08:51.460Z,4720.00
2018-09-01T06:09:51.448Z,4784.00
2018-09-01T06:10:51.438Z,4856.00
2018-09-01T06:11:51.431Z,4928.00
2018-09-01T06:12:51.418Z,4996.00
2018-09-01T06:13:51.449Z,5072.00
2018-09-01T06:14:51.392Z,5148.00
2018-09-01T06:15:51.382Z,5232.00
2018-09-01T06:16:51.370Z,5312.00
2018-09-01T06:17:51.393Z,5392.00
2018-09-01T06:18:51.348Z,5476.00
2018-09-01T06:19:51.352Z,5560.00
2018-09-01T06:20:51.327Z,5640.00
2018-09-01T06:21:51.316Z,5724.00
2018-09-01T06:22:51.301Z,5808.00
2018-09-01T06:23:51.338Z,5896.00
2018-09-01T06:24:51.339Z,6036.00
2018-09-01T06:25:51.274Z,6960.00
2018-09-01T06:26:51.261Z,7916.00
2018-09-01T06:27:51.247Z,8360.00
2018-09-01T06:28:51.252Z,8192.00
2018-09-01T06:29:51.223Z,8284.00
2018-09-01T06:30:51.215Z,8812.00
2018-09-01T06:31:51.204Z,9440.00
2018-09-01T06:32:51.235Z,9916.00
2018-09-01T06:33:51.202Z,10144.00
2018-09-01T06:34:51.170Z,9968.00
2018-09-01T06:35:51.179Z,9360.00
2018-09-01T06:36:51.147Z,9184.00
2018-09-01T06:37:51.139Z,9308.00
2018-09-01T06:38:51.127Z,9688.00
2018-09-01T06:39:51.138Z,10136.00
2018-09-01T06:40:51.105Z,10492.00
2018-09-01T06:41:51.095Z,10760.00
2018-09-01T06:42:51.143Z,11104.00
2018-09-01T06:43:51.072Z,11612.00
2018-09-01T06:44:51.060Z,12512.00
2018-09-01T06:45:51.075Z,13716.00
2018-09-01T06:46:51.037Z,15072.00
2018-09-01T06:47:51.027Z,15776.00
2018-09-01T06:48:51.016Z,16416.00
2018-09-01T06:49:51.007Z,17312.00
2018-09-01T06:50:50.998Z,18048.00
2018-09-01T06:51:51.001Z,18336.00
2018-09-01T06:52:50.970Z,18368.00
2018-09-01T06:53:50.959Z,18528.00
2018-09-01T06:54:50.948Z,18240.00
2018-09-01T06:55:50.939Z,18016.00
2018-09-01T06:56:50.943Z,17504.00
2018-09-01T06:57:50.915Z,17312.00
2018-09-01T06:58:50.907Z,17984.00
2018-09-01T06:59:50.894Z,18848.00
2018-09-01T07:00:50.885Z,19872.00
2018-09-01T07:01:50.893Z,20512.00
2018-09-01T07:02:50.864Z,22592.00
2018-09-01T07:03:50.851Z,26528.00
2018-09-01T07:04:50.840Z,31360.00
2018-09-01T07:05:50.831Z,28352.00
2018-09-01T07:06:50.819Z,22112.00
2018-09-01T07:07:50.826Z,20576.00
2018-09-01T07:08:50.899Z,34048.00
2018-09-01T07:09:50.785Z,33472.00
2018-09-01T07:10:50.780Z,33408.00
2018-09-01T07:11:50.767Z,34208.00
2018-09-01T07:12:50.754Z,33280.00
2018-09-01T07:13:50.760Z,32160.00
2018-09-01T07:14:50.735Z,25856.00
2018-09-01T07:15:50.719Z,26528.00
2018-09-01T07:16:50.711Z,32640.00
2018-09-01T07:17:50.699Z,31200.00
2018-09-01T07:18:50.710Z,34976.00
2018-09-01T07:19:50.673Z,35840.00
2018-09-01T07:20:50.662Z,35680.00
2018-09-01T07:21:50.650Z,36512.00
2018-09-01T07:22:50.644Z,37088.00
2018-09-01T07:23:50.631Z,37088.00
2018-09-01T07:24:50.634Z,38048.00
2018-09-01T07:25:50.607Z,39040.00
2018-09-01T07:26:50.597Z,40096.00
2018-09-01T07:27:50.585Z,40544.00
2018-09-01T07:28:50.576Z,38304.00
2018-09-01T07:29:50.580Z,40704.00
2018-09-01T07:30:50.834Z,41728.00
2018-09-01T07:31:50.543Z,41952.00
2018-09-01T07:32:50.533Z,43136.00
2018-09-01T07:33:50.526Z,40320.00
2018-09-01T07:34:50.531Z,37920.00
2018-09-01T07:35:50.500Z,40160.00
2018-09-01T07:36:50.492Z,41440.00
2018-09-01T07:37:50.482Z,40000.00
2018-09-01T07:38:50.467Z,40224.00
2018-09-01T07:39:50.497Z,24320.00
2018-09-01T07:40:50.448Z,29120.00
2018-09-01T07:41:50.435Z,26016.00
2018-09-01T07:42:50.428Z,18592.00
2018-09-01T07:43:50.414Z,15688.00
2018-09-01T07:44:50.406Z,15164.00
2018-09-01T07:45:50.403Z,14440.00
2018-09-01T07:46:50.391Z,21312.00
2018-09-01T07:47:50.372Z,33824.00
2018-09-01T07:48:50.359Z,48992.00
2018-09-01T07:49:50.385Z,30400.00
2018-09-01T07:50:50.370Z,42976.00
2018-09-01T07:51:50.326Z,38560.00
2018-09-01T07:52:50.313Z,21312.00
2018-09-01T07:53:50.302Z,29856.00
2018-09-01T07:54:50.292Z,51648.00
2018-09-01T07:55:50.281Z,32384.00
2018-09-01T07:56:50.285Z,55968.00
2018-09-01T07:57:50.260Z,32672.00
2018-09-01T07:58:50.245Z,24320.00
2018-09-01T07:59:50.238Z,25888.00
2018-09-01T08:00:50.224Z,49984.00
2018-09-01T08:01:50.236Z,31616.00
2018-09-01T08:02:50.201Z,24384.00
2018-09-01T08:03:50.191Z,21504.00
2018-09-01T08:04:50.183Z,21824.00
2018-09-01T08:05:50.172Z,27424.00
2018-09-01T08:06:50.175Z,23104.00
2018-09-01T08:07:50.148Z,25504.00
2018-09-01T08:08:50.154Z,24448.00
2018-09-01T08:09:50.126Z,25088.00
2018-09-01T08:10:50.117Z,34848.00
2018-09-01T08:11:50.103Z,28864.00
2018-09-01T08:12:50.092Z,25568.00
2018-09-01T08:13:50.156Z,23904.00
2018-09-01T08:14:50.084Z,47136.00
2018-09-01T08:15:50.064Z,23552.00
2018-09-01T08:16:50.051Z,24960.00
2018-09-01T08:17:50.041Z,30688.00
2018-09-01T08:18:50.031Z,41920.00
2018-09-01T08:19:50.030Z,33920.00
2018-09-01T08:20:50.023Z,46688.00
2018-09-01T08:21:50.009Z,68096.00
2018-09-01T08:22:49.981Z,64288.00
2018-09-01T08:23:49.985Z,64672.00
2018-09-01T08:24:49.963Z,65504.00
2018-09-01T08:25:49.952Z,62816.00
2018-09-01T08:26:49.942Z,64832.00
2018-09-01T08:27:49.932Z,56320.00
2018-09-01T08:28:49.945Z,51872.00
2018-09-01T08:29:49.912Z,21984.00
2018-09-01T08:30:49.900Z,22016.00
2018-09-01T08:31:49.895Z,70816.00
2018-09-01T08:32:49.881Z,20704.00
2018-09-01T08:33:49.883Z,19296.00
2018-09-01T08:34:49.872Z,13644.00
2018-09-01T08:35:49.846Z,11748.00
2018-09-01T08:36:49.836Z,11152.00
2018-09-01T08:37:49.826Z,11312.00
2018-09-01T08:38:49.821Z,12732.00
2018-09-01T08:39:49.817Z,64352.00
2018-09-01T08:40:49.795Z,18112.00
2018-09-01T08:41:49.782Z,68224.00
2018-09-01T08:42:49.773Z,65568.00
2018-09-01T08:43:49.760Z,66816.00
2018-09-01T08:44:49.763Z,68736.00
2018-09-01T08:45:49.750Z,67680.00
2018-09-01T08:46:49.725Z,68800.00
2018-09-01T08:47:49.713Z,70368.00
2018-09-01T08:48:49.728Z,19040.00
2018-09-01T08:49:49.692Z,70432.00
2018-09-01T08:50:49.681Z,27136.00
2018-09-01T08:51:49.677Z,75968.00
2018-09-01T08:52:49.662Z,31968.00
2018-09-01T08:53:49.648Z,70560.00
2018-09-01T08:54:49.657Z,21184.00
2018-09-01T08:55:49.629Z,17344.00
2018-09-01T08:56:49.637Z,16576.00
2018-09-01T08:57:49.609Z,18112.00
2018-09-01T08:58:49.597Z,32960.00
2018-09-01T08:59:49.590Z,26432.00
2018-09-01T09:00:49.577Z,53472.00
2018-09-01T09:01:49.583Z,26976.00
2018-09-01T09:02:49.554Z,25920.00
2018-09-01T09:03:49.547Z,25792.00
2018-09-01T09:04:49.532Z,23680.00
2018-09-01T09:05:49.522Z,18208.00
2018-09-01T09:06:49.526Z,16600.00
2018-09-01T09:07:49.513Z,18112.00
2018-09-01T09:08:49.488Z,21792.00
2018-09-01T09:09:49.477Z,24608.00
2018-09-01T09:10:49.469Z,27168.00
2018-09-01T09:11:49.474Z,85472.00
2018-09-01T09:12:49.443Z,51136.00
2018-09-01T09:13:49.448Z,46144.00
2018-09-01T09:14:49.424Z,53952.00
2018-09-01T09:15:49.414Z,18496.00
2018-09-01T09:16:49.401Z,15508.00
2018-09-01T09:17:49.391Z,14628.00
2018-09-01T09:18:49.397Z,14348.00
2018-09-01T09:19:49.369Z,14416.00
2018-09-01T09:20:49.357Z,14880.00
2018-09-01T09:21:49.345Z,15460.00
2018-09-01T09:22:49.340Z,16192.00
2018-09-01T09:23:49.345Z,16672.00
2018-09-01T09:24:49.320Z,16896.00
2018-09-01T09:25:49.301Z,16832.00
2018-09-01T09:26:49.292Z,16928.00
2018-09-01T09:27:49.287Z,17184.00
2018-09-01T09:28:49.269Z,17216.00
2018-09-01T09:29:49.272Z,17280.00
2018-09-01T09:30:49.248Z,17312.00
2018-09-01T09:31:49.238Z,17152.00
2018-09-01T09:32:49.224Z,16800.00
2018-09-01T09:33:49.219Z,16800.00
2018-09-01T09:34:49.220Z,17088.00
2018-09-01T09:35:49.193Z,17600.00
2018-09-01T09:36:49.180Z,18080.00
2018-09-01T09:37:49.174Z,18464.00
2018-09-01T09:38:49.161Z,18912.00
2018-09-01T09:39:49.167Z,19680.00
2018-09-01T09:40:49.152Z,20672.00
2018-09-01T09:41:49.174Z,21696.00
2018-09-01T09:42:49.115Z,23200.00
2018-09-01T09:43:49.105Z,24544.00
2018-09-01T09:44:49.136Z,28512.00
2018-09-01T09:45:49.085Z,43584.00
2018-09-01T09:46:49.077Z,78656.00
2018-09-01T09:47:49.061Z,32672.00
2018-09-01T09:48:49.049Z,43360.00
2018-09-01T09:49:49.041Z,47232.00
2018-09-01T09:50:49.042Z,81216.00
2018-09-01T09:51:49.018Z,94336.00
2018-09-01T09:52:49.049Z,93248.00
2018-09-01T09:53:48.997Z,95200.00
2018-09-01T09:54:48.988Z,76480.00
2018-09-01T09:55:48.990Z,30272.00
2018-09-01T09:56:48.965Z,35552.00
2018-09-01T09:57:48.951Z,74048.00
2018-09-01T09:58:48.950Z,99488.00
2018-09-01T09:59:48.936Z,39264.00
2018-09-01T10:00:48.944Z,56576.00
2018-09-01T10:01:48.912Z,60736.00
2018-09-01T10:02:48.909Z,97120.00
2018-09-01T10:03:48.915Z,96288.00
2018-09-01T10:04:48.892Z,53248.00
2018-09-01T10:05:48.884Z,25120.00
2018-09-01T10:06:48.872Z,26368.00
2018-09-01T10:07:48.872Z,90016.00
2018-09-01T10:08:48.835Z,25568.00
2018-09-01T10:09:48.828Z,36704.00
2018-09-01T10:10:48.820Z,29728.00
2018-09-01T10:11:48.825Z,30784.00
2018-09-01T10:12:48.796Z,33056.00
2018-09-01T10:13:48.784Z,39872.00
2018-09-01T10:14:48.811Z,87936.00
2018-09-01T10:15:48.882Z,104320.00
2018-09-01T10:16:48.766Z,103712.00
2018-09-01T10:17:48.747Z,73600.00
2018-09-01T10:18:48.730Z,37664.00
2018-09-01T10:19:48.722Z,29888.00
2018-09-01T10:20:48.714Z,21504.00
2018-09-01T10:21:48.712Z,15964.00
2018-09-01T10:22:48.687Z,13464.00
2018-09-01T10:23:48.677Z,12224.00
2018-09-01T10:24:48.667Z,11460.00
2018-09-01T10:25:48.658Z,11080.00
2018-09-01T10:26:48.704Z,11060.00
2018-09-01T10:27:48.637Z,11188.00
2018-09-01T10:28:48.621Z,11480.00
2018-09-01T10:29:48.610Z,11852.00
2018-09-01T10:30:48.600Z,12384.00
2018-09-01T10:31:48.607Z,13056.00
2018-09-01T10:32:48.592Z,13904.00
2018-09-01T10:33:48.583Z,14832.00
2018-09-01T10:34:48.571Z,15760.00
2018-09-01T10:35:48.546Z,16896.00
2018-09-01T10:36:48.537Z,17824.00
2018-09-01T10:37:48.545Z,18976.00
2018-09-01T10:38:48.514Z,20448.00
2018-09-01T10:39:48.502Z,21920.00
2018-09-01T10:40:48.494Z,23392.00
2018-09-01T10:41:48.480Z,25056.00
2018-09-01T10:42:48.485Z,41568.00
2018-09-01T10:43:48.461Z,103328.00
2018-09-01T10:44:48.473Z,107872.00
2018-09-01T10:45:48.437Z,101728.00
2018-09-01T10:46:48.426Z,101632.00
2018-09-01T10:47:48.416Z,99200.00
2018-09-01T10:48:48.406Z,95552.00
2018-09-01T10:49:48.398Z,95872.00
2018-09-01T10:50:48.396Z,95872.00
2018-09-01T10:51:48.397Z,93888.00
2018-09-01T10:52:48.359Z,93600.00
2018-09-01T10:53:48.350Z,92256.00
2018-09-01T10:54:48.340Z,91936.00
2018-09-01T10:55:48.331Z,94624.00
2018-09-01T10:56:48.319Z,96640.00
2018-09-01T10:57:48.320Z,98048.00
2018-09-01T10:58:48.322Z,96864.00
2018-09-01T10:59:48.356Z,98464.00
2018-09-01T11:00:48.288Z,99168.00
2018-09-01T11:01:48.266Z,101056.00
2018-09-01T11:02:48.256Z,100096.00
2018-09-01T11:03:48.246Z,98208.00
2018-09-01T11:04:48.235Z,95744.00
2018-09-01T11:05:48.236Z,98976.00
2018-09-01T11:06:48.214Z,102432.00
2018-09-01T11:07:48.230Z,106560.00
2018-09-01T11:08:48.191Z,110912.00
2018-09-01T11:09:48.180Z,95328.00
2018-09-01T11:10:48.176Z,105984.00
2018-09-01T11:11:48.163Z,39328.00
2018-09-01T11:12:48.148Z,25472.00
2018-09-01T11:13:48.174Z,24320.00
2018-09-01T11:14:48.128Z,23584.00
2018-09-01T11:15:48.118Z,33888.00
2018-09-01T11:16:48.122Z,37568.00
2018-09-01T11:17:48.103Z,107264.00
2018-09-01T11:18:48.095Z,107712.00
2018-09-01T11:19:48.086Z,107232.00
2018-09-01T11:20:48.101Z,107008.00
2018-09-01T11:21:48.076Z,107680.00
2018-09-01T11:22:48.043Z,70816.00
2018-09-01T11:23:48.031Z,36256.00
2018-09-01T11:24:48.023Z,28416.00
2018-09-01T11:25:48.025Z,26080.00
2018-09-01T11:26:48.034Z,22912.00
2018-09-01T11:27:48.073Z,20448.00
2018-09-01T11:28:47.980Z,18464.00
2018-09-01T11:29:47.969Z,16960.00
2018-09-01T11:30:47.958Z,15736.00
2018-09-01T11:31:47.949Z,15556.00
2018-09-01T11:32:47.955Z,16172.00
2018-09-01T11:33:47.925Z,17376.00
2018-09-01T11:34:47.918Z,16132.00
2018-09-01T11:35:47.923Z,15484.00
2018-09-01T11:36:47.973Z,14712.00
2018-09-01T11:37:47.902Z,14184.00
2018-09-01T11:38:47.876Z,14204.00
2018-09-01T11:39:47.863Z,14828.00
2018-09-01T11:40:47.868Z,16100.00
2018-09-01T11:41:47.858Z,17552.00
2018-09-01T11:42:47.915Z,22624.00
2018-09-01T11:43:47.821Z,99552.00
2018-09-01T11:44:47.825Z,99296.00
2018-09-01T11:45:47.799Z,102688.00
2018-09-01T11:46:47.803Z,50688.00
2018-09-01T11:47:47.779Z,106336.00
2018-09-01T11:48:47.786Z,105216.00
2018-09-01T11:49:47.757Z,104288.00
2018-09-01T11:50:47.767Z,104512.00
2018-09-01T11:51:47.735Z,104128.00
2018-09-01T11:52:47.725Z,102656.00
2018-09-01T11:53:47.723Z,97920.00
2018-09-01T11:54:47.704Z,100480.00
2018-09-01T11:55:47.694Z,22496.00
2018-09-01T11:56:47.694Z,18976.00
2018-09-01T11:57:47.672Z,17408.00
2018-09-01T11:58:47.707Z,16288.00
2018-09-01T11:59:47.650Z,14964.00
2018-09-01T12:00:47.640Z,14492.00
2018-09-01T12:01:47.626Z,14260.00
2018-09-01T12:02:47.618Z,14060.00
2018-09-01T12:03:47.635Z,13692.00
2018-09-01T12:04:47.596Z,13300.00
2018-09-01T12:05:47.583Z,13324.00
2018-09-01T12:06:47.571Z,13460.00
2018-09-01T12:07:47.562Z,13876.00
2018-09-01T12:08:47.598Z,14324.00
2018-09-01T12:09:47.548Z,14376.00
2018-09-01T12:10:47.530Z,14596.00
2018-09-01T12:11:47.526Z,14864.00
2018-09-01T12:12:47.509Z,15196.00
2018-09-01T12:13:47.531Z,15948.00
2018-09-01T12:14:47.488Z,16904.00
2018-09-01T12:15:47.546Z,18240.00
2018-09-01T12:16:47.465Z,19520.00
2018-09-01T12:17:47.458Z,19808.00
2018-09-01T12:18:47.445Z,20512.00
2018-09-01T12:19:47.451Z,22528.00